Latest Coastal Weather Observations for Cape Willoughby

IDS60701

Issued at 1:05 pm CST Wednesday 17 September 2014 (issued every 10 minutes, with the page automatically refreshed every 10 minutes)

About coastal observations | Map of coastal stations | Coastal observations for SA | Marine services | Other Formats
Station Details ID: 022803 Name: CAPE WILLOUGHBY Lat: -35.84 Lon: 138.13 Height: 55.0 m
Data from the previous 72 hours. | See also: Recent months at Cape Willoughby
Date/Time
CST
Temp

°C
Wind Pressure Rain
since 9am
mm
Weather Cloud Vis
km
Sea
Height
m
Swell
Dir
 
Speed
knots
Gust
knots
hPa Trend Height
m
Period
s
Dir
17/01:00pm 13.0 SSW 12 17 1022.3 - 0.0 - - - - - - -
17/12:30pm 12.6 S 13 19 1022.3 - 0.0 - - - - - - -
17/12:00pm 12.7 S 11 16 1022.4 - 0.0 - - - - - - -
17/11:30am 13.3 SSW 14 18 1022.3 - 0.0 - - - - - - -
17/11:00am 13.1 SSW 17 20 1022.0 - 0.0 - - - - - - -
17/10:30am 13.0 SSW 15 21 1021.9 - 0.0 - - - - - - -
17/10:00am 12.8 S 13 19 1021.7 - 0.0 - - - - - - -
17/09:30am 13.3 SSW 16 20 1021.4 - 0.0 - - - - - - -
17/09:00am 12.6 SSW 17 21 1021.2 - 3.0 - - - - - - -
17/08:30am 12.6 S 13 19 1021.0 - 3.0 - - - - - - -
17/08:00am 12.4 SSW 17 22 1020.4 - 3.0 - - - - - - -
17/07:30am 12.3 SSW 18 23 1020.0 - 3.0 - - - - - - -
17/07:00am 11.9 SSW 17 22 1019.7 - 3.0 - - - - - - -
17/06:30am 12.2 SSW 17 22 1019.3 - 3.0 - - - - - - -
17/06:00am 11.8 SW 17 20 1019.2 - 3.0 - - - - - - -
17/05:30am 10.7 WSW 13 16 1018.8 - 3.0 - - - - - - -
17/05:00am 10.7 SW 13 18 1018.6 - 3.0 - - - - - - -
17/04:30am 9.8 WSW 11 16 1018.6 - 3.0 - - - - - - -
17/04:00am 9.2 W 12 15 1018.3 - 3.0 - - - - - - -
17/03:30am 9.2 W 10 13 1018.1 - 3.0 - - - - - - -
17/03:00am 9.6 W 11 13 1018.2 - 3.0 Recent precip. - - - - - -
17/02:30am 9.8 W 12 15 1018.6 - 2.4 - - - - - - -
17/02:00am 9.5 W 10 13 1018.5 - 2.0 - - - - - - -
17/01:30am 9.7 W 14 18 1018.9 - 2.0 - - - - - - -
17/01:00am 9.5 W 14 17 1018.6 - 1.8 - - - - - - -
17/12:30am 9.7 W 11 14 1018.9 - 1.8 - - - - - - -
17/12:00am 10.0 WSW 11 16 1019.2 - 1.6 Rain - - - - - -
 
Date/Time
CST
Temp

°C
Wind Pressure Rain
since 9am
mm
Weather Cloud Vis
km
Sea
Height
m
Swell
Dir
 
Speed
knots
Gust
knots
hPa Trend Height
m
Period
s
Dir
16/11:30pm 10.0 WNW 13 17 1018.6 - 0.6 - - - - - - -
16/11:00pm 10.7 NW 8 12 1018.8 - 0.6 - - - - - - -
16/10:30pm 11.6 W 7 10 1018.7 - 0.6 - - - - - - -
16/10:00pm 11.8 WSW 7 10 1018.8 - 0.6 - - - - - - -
16/09:30pm 12.3 SSW 17 20 1018.5 - 0.6 - - - - - - -
16/09:00pm 12.2 WSW 14 19 1018.5 - 0.6 - - - - - - -
16/08:30pm 11.9 WSW 10 14 1018.3 - 0.6 - - - - - - -
16/08:00pm 10.8 W 8 11 1017.9 - 0.6 - - - - - - -
16/07:30pm 10.9 W 9 13 1017.5 - 0.6 - - - - - - -
16/07:00pm 11.7 WSW 12 17 1017.2 - 0.6 - - - - - - -
16/06:30pm 12.2 SW 17 21 1016.9 - 0.6 - - - - - - -
16/06:00pm 12.3 SW 20 25 1016.6 - 0.6 - - - - - - -
16/05:30pm 12.5 SW 16 20 1016.4 - 0.6 - - - - - - -
16/05:00pm 13.1 SW 18 23 1016.3 - 0.6 - - - - - - -
16/04:30pm 13.4 SW 16 21 1016.3 - 0.6 - - - - - - -
16/04:00pm 13.4 SW 18 22 1016.1 - 0.6 - - - - - - -
16/03:30pm 13.1 SSW 16 19 1016.0 - 0.6 - - - - - - -
16/03:00pm 13.1 SW 16 20 1015.9 - 0.6 - - - - - - -
16/02:30pm 13.1 SW 15 19 1016.0 - 0.6 - - - - - - -
16/02:00pm 12.7 WSW 15 20 1016.2 - 0.6 - - - - - - -
16/01:30pm 13.4 WSW 19 25 1016.4 - 0.0 - - - - - - -
16/01:03pm 13.6 WSW 15 27 1016.4 - 0.0 - - - - - - -
16/01:00pm 14.6 WSW 13 17 1016.5 - 0.0 - - - - - - -
16/12:30pm 14.8 W 9 14 1016.8 - 0.0 - - - - - - -
16/12:00pm 16.0 WSW 13 18 1016.9 - 0.0 - - - - - - -
16/11:30am 15.8 WSW 12 19 1017.1 - 0.0 - - - - - - -
16/11:00am 16.1 SW 9 13 1017.3 - 0.0 - - - - - - -
16/10:30am 15.9 SSW 6 10 1017.3 - 0.0 - - - - - - -
16/10:00am 15.7 SW 9 13 1017.4 - 0.0 - - - - - - -
16/09:30am 14.9 WSW 11 18 1017.6 - 0.0 - - - - - - -
16/09:00am 13.9 W 13 18 1017.7 - 0.4 - - - - - - -
16/08:30am 13.6 W 13 18 1017.7 - 0.4 - - - - - - -
16/08:00am 11.9 W 12 15 1017.6 - 0.4 - - - - - - -
16/07:30am 11.9 W 10 13 1017.5 - 0.4 - - - - - - -
16/07:00am 10.8 W 9 12 1017.3 - 0.4 - - - - - - -
16/06:30am 10.9 W 10 12 1017.0 - 0.2 - - - - - - -
16/06:00am 11.2 W 10 14 1016.9 - 0.2 - - - - - - -
16/05:30am 11.5 W 8 11 1016.8 - 0.2 - - - - - - -
16/05:00am 11.6 W 8 10 1016.7 - 0.2 - - - - - - -
16/04:30am 11.8 W 11 15 1016.4 - 0.2 - - - - - - -
16/04:00am 12.4 WSW 10 13 1016.3 - 0.2 - - - - - - -
16/03:30am 12.6 SW 9 12 1016.0 - 0.2 - - - - - - -
16/03:00am 12.4 WSW 10 13 1015.9 - 0.2 - - - - - - -
16/02:30am 12.9 SW 11 15 1016.1 - 0.2 - - - - - - -
16/02:00am 12.4 SW 11 14 1016.2 - 0.2 - - - - - - -
16/01:30am 12.3 WSW 7 10 1016.7 - 0.2 - - - - - - -
16/01:00am 13.2 SSW 13 16 1016.8 - 0.2 - - - - - - -
16/12:30am 13.1 SSW 13 16 1016.8 - 0.2 - - - - - - -
16/12:00am 13.0 SSW 14 18 1016.9 - 0.2 - - - - - - -
 
Date/Time
CST
Temp

°C
Wind Pressure Rain
since 9am
mm
Weather Cloud Vis
km
Sea
Height
m
Swell
Dir
 
Speed
knots
Gust
knots
hPa Trend Height
m
Period
s
Dir
15/11:30pm 12.9 SSW 16 20 1016.8 - 0.2 - - - - - - -
15/11:00pm 12.9 SSW 12 18 1016.8 - 0.2 - - - - - - -
15/10:30pm 13.2 S 12 18 1016.8 - 0.2 - - - - - - -
15/10:00pm 13.2 S 15 20 1016.9 - 0.2 - - - - - - -
15/09:30pm 13.3 S 17 22 1016.8 - 0.2 - - - - - - -
15/09:00pm 13.2 SSW 12 18 1016.9 - 0.2 - - - - - - -
15/08:30pm 13.6 S 16 23 1016.7 - 0.2 - - - - - - -
15/08:00pm 13.4 S 14 21 1016.6 - 0.2 - - - - - - -
15/07:30pm 13.5 S 18 24 1016.1 - 0.2 - - - - - - -
15/07:00pm 13.5 S 19 24 1015.5 - 0.2 - - - - - - -
15/06:30pm 13.5 S 18 22 1015.5 - 0.2 - - - - - - -
15/06:00pm 13.5 S 18 27 1015.0 - 0.2 - - - - - - -
15/05:30pm 13.4 S 20 28 1014.7 - 0.2 - - - - - - -
15/05:29pm 13.3 S 21 31 1014.6 - 0.2 - - - - - - -
15/05:00pm 14.0 SSW 24 29 1014.3 - 0.2 - - - - - - -
15/04:30pm 14.0 SSW 25 30 1014.0 - 0.2 - - - - - - -
15/04:00pm 13.8 SSW 26 32 1013.4 - 0.2 - - - - - - -
15/03:30pm 13.3 SSW 26 33 1013.3 - 0.2 - - - - - - -
15/03:00pm 13.9 SSW 23 31 1013.3 - 0.0 - - - - - - -
15/02:30pm 13.7 SSW 23 29 1013.1 - 0.0 - - - - - - -
15/02:00pm 13.9 SSW 22 26 1013.2 - 0.0 - - - - - - -
15/01:30pm 14.3 SSW 20 28 1013.1 - 0.0 - - - - - - -
15/01:00pm 14.2 SSW 17 28 1012.8 - 0.0 - - - - - - -
15/12:58pm 14.3 SSW 18 28 1012.8 - 0.0 - - - - - - -
15/12:30pm 14.5 S 19 26 1012.3 - 0.0 - - - - - - -
15/12:20pm 14.3 S 21 31 1012.2 - 0.0 - - - - - - -
15/12:00pm 14.3 S 24 32 1012.1 - 0.0 - - - - - - -
15/11:30am 14.6 S 25 32 1011.7 - 0.0 - - - - - - -
15/11:00am 14.7 S 25 29 1011.4 - 0.0 - - - - - - -
15/10:30am 14.7 S 19 26 1011.4 - 0.0 - - - - - - -
15/10:00am 14.7 S 15 22 1011.4 - 0.0 - - - - - - -
15/09:30am 14.1 S 20 24 1010.7 - 0.0 - - - - - - -
15/09:00am 14.1 S 21 25 1009.9 - 0.0 - - - - - - -
15/08:30am 14.0 S 15 20 1009.8 - 0.0 - - - - - - -
15/08:00am 13.8 S 14 19 1009.6 - 0.0 - - - - - - -
15/07:30am 13.7 S 8 11 1009.1 - 0.0 - - - - - - -
15/07:00am 13.3 SW 5 7 1008.8 - 0.0 - - - - - - -
15/06:30am 13.5 NW 3 4 1008.5 - 0.0 - - - - - - -
15/06:00am 13.7 N 11 15 1008.1 - 0.0 - - - - - - -
15/05:30am 13.5 N 16 21 1008.0 - 0.0 - - - - - - -
15/05:00am 13.5 N 19 22 1007.9 - 0.0 - - - - - - -
15/04:30am 13.6 N 19 22 1008.1 - 0.0 - - - - - - -
15/04:00am 13.6 N 17 20 1008.3 - 0.0 - - - - - - -
15/03:30am 13.6 N 16 19 1008.4 - 0.0 - - - - - - -
15/03:00am 13.4 N 16 19 1008.6 - 0.0 - - - - - - -
15/02:30am 13.1 N 16 19 1008.7 - 0.0 - - - - - - -
15/02:00am 13.2 N 17 21 1009.1 - 0.0 - - - - - - -
15/01:30am 13.4 N 13 17 1009.4 - 0.0 - - - - - - -
15/01:00am 13.9 N 8 12 1010.0 - 0.0 - - - - - - -
15/12:30am 13.9 N 16 19 1010.0 - 0.0 - - - - - - -
15/12:00am 14.2 ENE 13 15 1010.3 - 0.0 - - - - - - -
 
Date/Time
CST
Temp

°C
Wind Pressure Rain
since 9am
mm
Weather Cloud Vis
km
Sea
Height
m
Swell
Dir
 
Speed
knots
Gust
knots
hPa Trend Height
m
Period
s
Dir
14/11:30pm 14.3 E 20 24 1010.1 - 0.0 - - - - - - -
14/11:00pm 14.2 E 21 23 1010.7 - 0.0 - - - - - - -
14/10:30pm 14.2 ESE 17 22 1011.4 - 0.0 - - - - - - -
14/10:00pm 14.2 ESE 12 16 1012.5 - 0.0 - - - - - - -
14/09:30pm 14.1 ESE 8 11 1012.8 - 0.0 - - - - - - -
14/09:00pm 14.2 E 13 15 1012.6 - 0.0 - - - - - - -
14/08:30pm 14.2 E 14 17 1012.9 - 0.0 - - - - - - -
14/08:00pm 14.2 E 14 18 1013.0 - 0.0 - - - - - - -
14/07:30pm 14.0 E 16 20 1013.0 - 0.0 - - - - - - -
14/07:00pm 13.9 E 18 21 1013.0 - 0.0 - - - - - - -
14/06:30pm 13.7 E 19 24 1013.1 - 0.0 - - - - - - -
14/06:00pm 13.7 E 16 21 1013.6 - 0.0 - - - - - - -
14/05:30pm 13.7 E 16 22 1013.9 - 0.0 - - - - - - -
14/05:00pm 13.7 E 16 19 1014.4 - 0.0 - - - - - - -
14/04:30pm 13.9 E 14 20 1014.5 - 0.0 - - - - - - -
14/04:00pm 13.8 E 16 20 1014.7 - 0.0 - - - - - - -
14/03:30pm 13.9 E 16 19 1015.1 - 0.0 - - - - - - -
14/03:00pm 13.7 E 19 22 1015.3 - 0.0 - - - - - - -
14/02:30pm 13.7 E 17 20 1015.8 - 0.0 - - - - - - -
14/02:00pm 13.6 E 17 20 1016.2 - 0.0 - - - - - - -
14/01:30pm 13.8 E 17 21 1016.9 - 0.0 - - - - - - -

Other Formats:

Comma delimited format used in spreadsheet applications
http://www.bom.gov.au/fwo/IDS60701/IDS60701.94822.axf

JavaScript Object Notation format (JSON) in row-major order
http://www.bom.gov.au/fwo/IDS60701/IDS60701.94822.json